createdAt,value
2022-08-26T00:02:35.345Z,100721.34
2022-08-26T00:05:37.827Z,100714.09
2022-08-26T00:08:40.823Z,100722.16
2022-08-26T00:11:45.429Z,100726.16
2022-08-26T00:14:47.625Z,100720.66
2022-08-26T00:17:51.211Z,100728.44
2022-08-26T00:20:55.130Z,100727.09
2022-08-26T00:23:57.498Z,100728.91
2022-08-26T00:26:59.638Z,100726.00
2022-08-26T00:30:05.906Z,100718.53
2022-08-26T00:33:08.352Z,100723.53
2022-08-26T00:36:19.857Z,100717.72
2022-08-26T00:39:22.994Z,100724.50
2022-08-26T00:42:25.107Z,100715.66
2022-08-26T00:45:38.204Z,100727.25
2022-08-26T00:48:44.006Z,100709.53
2022-08-26T00:51:53.593Z,100719.50
2022-08-26T00:55:07.538Z,100720.94
2022-08-26T00:58:09.631Z,100722.00
2022-08-26T01:01:12.184Z,100715.66
2022-08-26T01:04:19.534Z,100720.19
2022-08-26T01:07:21.918Z,100718.03
2022-08-26T01:10:29.901Z,100706.44
2022-08-26T01:13:32.793Z,100703.97
2022-08-26T01:16:37.749Z,100718.03
2022-08-26T01:20:12.632Z,100720.19
2022-08-26T01:23:16.262Z,100717.09
2022-08-26T01:26:34.088Z,100705.19
2022-08-26T01:29:40.719Z,100693.22
2022-08-26T01:32:44.200Z,100713.69
2022-08-26T01:35:48.140Z,100705.72
2022-08-26T01:38:51.392Z,100713.69
2022-08-26T01:41:57.132Z,100720.59
2022-08-26T01:45:11.599Z,100719.50
2022-08-26T01:48:21.084Z,100725.84
2022-08-26T01:51:26.562Z,100719.50
2022-08-26T01:54:28.799Z,100710.34
2022-08-26T01:57:31.883Z,100712.03
2022-08-26T02:00:36.096Z,100704.28
2022-08-26T02:03:53.776Z,100712.03
2022-08-26T02:06:57.160Z,100723.03
2022-08-26T02:10:01.423Z,100709.78
2022-08-26T02:13:09.615Z,100710.88
2022-08-26T02:16:15.622Z,100706.38
2022-08-26T02:19:23.999Z,100714.88
2022-08-26T02:22:26.895Z,100708.22
2022-08-26T02:25:40.446Z,100722.59
2022-08-26T02:28:51.457Z,100730.34
2022-08-26T02:31:55.925Z,100724.84
2022-08-26T02:34:58.133Z,100709.47
2022-08-26T02:38:00.657Z,100711.13
2022-08-26T02:41:03.893Z,100708.38
2022-08-26T02:44:07.318Z,100706.44
2022-08-26T02:47:09.457Z,100714.69
2022-08-26T02:50:11.754Z,100702.81
2022-08-26T02:53:14.309Z,100710.88
2022-08-26T02:56:17.061Z,100709.19
2022-08-26T02:59:19.127Z,100709.19
2022-08-26T03:02:27.664Z,100717.44
2022-08-26T03:05:30.574Z,100715.78
2022-08-26T03:08:32.613Z,100717.38
2022-08-26T03:11:36.626Z,100721.44
2022-08-26T03:14:38.902Z,100724.47
2022-08-26T03:17:41.033Z,100723.09
2022-08-26T03:20:44.003Z,100733.28
2022-08-26T03:23:46.815Z,100726.72
2022-08-26T03:26:52.956Z,100715.13
2022-08-26T03:30:14.086Z,100698.25
2022-08-26T03:33:17.124Z,100707.38
2022-08-26T03:36:19.883Z,100717.63
2022-08-26T03:39:21.913Z,100725.03
2022-08-26T03:42:26.155Z,100707.38
2022-08-26T03:45:28.286Z,100708.16
2022-08-26T03:48:30.388Z,100700.91
2022-08-26T03:51:33.620Z,100715.25
2022-08-26T03:54:36.545Z,100718.81
2022-08-26T03:57:38.658Z,100705.31
2022-08-26T04:00:40.746Z,100709.59
2022-08-26T04:03:57.789Z,100716.50
2022-08-26T04:07:02.203Z,100719.63
2022-08-26T04:10:04.581Z,100719.25
2022-08-26T04:13:06.932Z,100711.34
2022-08-26T04:16:09.205Z,100705.09
2022-08-26T04:19:14.548Z,100712.31
2022-08-26T04:22:24.096Z,100714.88
2022-08-26T04:25:27.043Z,100706.28
2022-08-26T04:28:29.935Z,100709.97
2022-08-26T04:31:34.715Z,100704.47
2022-08-26T04:34:37.895Z,100706.38
2022-08-26T04:37:44.069Z,100707.22
2022-08-26T04:40:47.158Z,100718.25
2022-08-26T04:43:50.433Z,100710.03
2022-08-26T04:46:54.903Z,100712.44
2022-08-26T04:49:57.764Z,100698.06
2022-08-26T04:53:00.400Z,100705.56
2022-08-26T04:56:02.744Z,100707.47
2022-08-26T04:59:16.716Z,100708.03
2022-08-26T05:02:19.960Z,100710.78
2022-08-26T05:05:22.537Z,100708.88
2022-08-26T05:08:25.199Z,100713.81
2022-08-26T05:11:27.906Z,100714.13
2022-08-26T05:14:31.242Z,100713.88
2022-08-26T05:17:33.490Z,100716.09
2022-08-26T05:20:43.915Z,100715.84
2022-08-26T05:23:48.405Z,100715.53
2022-08-26T05:26:51.588Z,100700.06
2022-08-26T05:29:57.566Z,100713.09
2022-08-26T05:32:59.877Z,100708.19
2022-08-26T05:36:07.979Z,100711.22
2022-08-26T05:39:11.264Z,100699.88
2022-08-26T05:42:13.469Z,100705.44
2022-08-26T05:45:15.739Z,100693.97
2022-08-26T05:48:22.715Z,100711.38
2022-08-26T05:51:26.765Z,100714.47
2022-08-26T05:54:34.941Z,100715.03
2022-08-26T05:57:42.244Z,100705.44
2022-08-26T06:03:51.936Z,100709.69
2022-08-26T06:06:53.994Z,100703.69
2022-08-26T06:10:09.939Z,100688.25
2022-08-26T06:13:20.690Z,100703.19
2022-08-26T06:16:24.671Z,100697.97
2022-08-26T06:19:33.155Z,100702.53
2022-08-26T06:22:55.146Z,100700.91
2022-08-26T06:25:57.894Z,100693.53
2022-08-26T06:29:00.520Z,100693.81
2022-08-26T06:32:05.358Z,100711.53
2022-08-26T06:35:12.252Z,100716.84
2022-08-26T06:38:15.739Z,100710.28
2022-08-26T06:41:20.258Z,100703.44
2022-08-26T06:44:22.667Z,100704.78
2022-08-26T06:47:24.872Z,100705.44
2022-08-26T06:50:26.963Z,100696.03
2022-08-26T06:53:29.566Z,100710.34
2022-08-26T06:56:40.843Z,100697.50
2022-08-26T06:59:42.925Z,100693.41
2022-08-26T07:02:47.001Z,100674.69
2022-08-26T07:05:49.650Z,100679.34
2022-08-26T07:09:05.059Z,100675.72
2022-08-26T07:12:07.472Z,100679.00
2022-08-26T07:15:10.411Z,100665.28
2022-08-26T07:18:12.460Z,100650.91
2022-08-26T07:21:18.323Z,100665.41
2022-08-26T07:24:20.967Z,100661.31
2022-08-26T07:27:23.370Z,100647.25
2022-08-26T07:30:26.807Z,100647.56
2022-08-26T07:33:29.897Z,100643.41
2022-08-26T07:36:33.153Z,100649.81
2022-08-26T07:39:35.503Z,100651.56
2022-08-26T07:42:40.158Z,100650.19
2022-08-26T07:45:42.819Z,100636.06
2022-08-26T07:48:46.141Z,100646.91
2022-08-26T07:51:49.876Z,100645.06
2022-08-26T07:54:51.859Z,100636.81
2022-08-26T07:57:54.129Z,100635.22
2022-08-26T08:00:56.623Z,100624.78
2022-08-26T08:03:59.060Z,100625.34
2022-08-26T08:07:01.125Z,100627.38
2022-08-26T08:10:09.747Z,100610.50
2022-08-26T08:13:14.616Z,100590.13
2022-08-26T08:16:17.093Z,100622.22
2022-08-26T08:19:19.204Z,100611.84
2022-08-26T08:22:23.766Z,100622.63
2022-08-26T08:25:26.961Z,100604.72
2022-08-26T08:28:29.184Z,100620.75
2022-08-26T08:34:57.706Z,100590.16
2022-08-26T08:37:59.634Z,100607.06
2022-08-26T08:41:04.215Z,100596.38
2022-08-26T08:44:20.188Z,100595.88
2022-08-26T08:47:36.842Z,100589.00
2022-08-26T08:50:50.827Z,100594.81
2022-08-26T08:53:55.486Z,100591.03
2022-08-26T08:57:16.556Z,100586.06
2022-08-26T09:00:19.888Z,100586.06
2022-08-26T09:03:35.462Z,100594.63
2022-08-26T09:06:37.550Z,100589.97
2022-08-26T09:09:51.631Z,100585.25
2022-08-26T09:12:54.578Z,100592.16
2022-08-26T09:16:25.021Z,100586.72
2022-08-26T09:19:52.731Z,100584.28
2022-08-26T09:22:57.559Z,100579.63
2022-08-26T09:26:25.879Z,100567.53
2022-08-26T09:29:40.990Z,100565.91
2022-08-26T09:32:44.554Z,100551.59
2022-08-26T09:36:24.841Z,100556.59
2022-08-26T09:39:39.099Z,100545.84
2022-08-26T09:42:41.123Z,100547.78
2022-08-26T09:45:50.642Z,100542.56
2022-08-26T09:48:54.219Z,100544.78
2022-08-26T09:52:15.655Z,100535.69
2022-08-26T09:55:23.813Z,100545.09
2022-08-26T09:58:41.996Z,100537.94
2022-08-26T10:01:44.896Z,100541.25
2022-08-26T10:04:56.952Z,100524.19
2022-08-26T10:07:59.763Z,100534.94
2022-08-26T10:11:16.339Z,100522.81
2022-08-26T10:14:25.649Z,100524.53
2022-08-26T10:17:34.384Z,100521.19
2022-08-26T10:20:50.007Z,100506.56
2022-08-26T10:23:57.496Z,100496.97
2022-08-26T10:27:27.567Z,100507.72
2022-08-26T10:30:38.213Z,100495.63
2022-08-26T10:33:40.465Z,100503.63
2022-08-26T10:37:14.459Z,100500.03
2022-08-26T10:40:24.829Z,100499.78
2022-08-26T10:43:36.128Z,100496.19
2022-08-26T10:46:50.229Z,100491.22
2022-08-26T10:49:57.597Z,100494.56
2022-08-26T10:53:08.848Z,100483.25
2022-08-26T10:56:29.676Z,100489.03
2022-08-26T11:00:28.993Z,100487.94
2022-08-26T11:03:43.919Z,100474.69
2022-08-26T11:06:46.696Z,100473.03
2022-08-26T11:09:49.958Z,100478.50
2022-08-26T11:13:07.345Z,100467.72
2022-08-26T11:16:09.715Z,100474.91
2022-08-26T11:19:45.575Z,100468.81
2022-08-26T11:22:55.317Z,100466.28
2022-08-26T11:26:36.044Z,100474.31
2022-08-26T11:30:08.454Z,100471.56
2022-08-26T11:33:44.262Z,100475.44
2022-08-26T11:36:46.376Z,100471.25
2022-08-26T11:39:55.566Z,100457.47
2022-08-26T11:43:05.844Z,100457.50
2022-08-26T11:46:11.454Z,100454.47
2022-08-26T11:49:14.851Z,100458.88
2022-08-26T11:52:22.261Z,100462.44
2022-08-26T11:55:24.344Z,100452.22
2022-08-26T11:58:28.237Z,100450.28
2022-08-26T12:01:33.686Z,100446.69
2022-08-26T12:04:41.168Z,100444.22
2022-08-26T12:07:43.391Z,100449.47
2022-08-26T12:10:48.320Z,100445.84
2022-08-26T12:14:00.218Z,100429.75
2022-08-26T12:17:26.151Z,100432.81
2022-08-26T12:20:46.026Z,100430.56
2022-08-26T12:23:51.168Z,100425.56
2022-08-26T12:27:14.634Z,100425.09
2022-08-26T12:30:21.013Z,100418.22
2022-08-26T12:33:23.432Z,100415.72
2022-08-26T12:36:31.540Z,100423.34
2022-08-26T12:39:35.748Z,100408.97
2022-08-26T12:42:42.139Z,100411.44
2022-08-26T12:45:56.213Z,100413.13
2022-08-26T12:49:01.374Z,100407.03
2022-08-26T12:52:05.409Z,100405.03
2022-08-26T12:55:20.630Z,100398.34
2022-08-26T12:58:27.562Z,100404.16
2022-08-26T13:01:39.287Z,100395.91
2022-08-26T13:04:43.406Z,100394.31
2022-08-26T13:08:08.963Z,100397.09
2022-08-26T13:11:10.880Z,100397.34
2022-08-26T13:14:23.726Z,100393.16
2022-08-26T13:17:28.028Z,100397.28
2022-08-26T13:20:30.607Z,100397.22
2022-08-26T13:23:32.601Z,100402.22
2022-08-26T13:26:35.619Z,100378.53
2022-08-26T13:29:38.295Z,100394.59
2022-08-26T13:32:41.206Z,100397.66
2022-08-26T13:35:45.302Z,100404.00
2022-08-26T13:38:48.328Z,100406.22
2022-08-26T13:41:54.485Z,100399.88
2022-08-26T13:44:58.190Z,100392.94
2022-08-26T13:48:00.634Z,100402.06
2022-08-26T13:51:03.250Z,100394.91
2022-08-26T13:54:10.331Z,100407.63
2022-08-26T13:57:12.385Z,100410.91
2022-08-26T14:00:15.495Z,100399.59
2022-08-26T14:03:18.231Z,100407.88
2022-08-26T14:06:21.355Z,100406.72
2022-08-26T14:09:23.335Z,100409.22
2022-08-26T14:12:25.458Z,100399.03
2022-08-26T14:15:28.030Z,100391.88
2022-08-26T14:18:41.515Z,100400.72
2022-08-26T14:21:44.549Z,100399.59
2022-08-26T14:24:46.695Z,100394.63
2022-08-26T14:27:55.486Z,100401.81
2022-08-26T14:30:58.524Z,100402.66
2022-08-26T14:34:05.074Z,100401.28
2022-08-26T14:37:08.182Z,100404.34
2022-08-26T14:40:14.031Z,100397.72
2022-08-26T14:43:16.311Z,100397.97
2022-08-26T14:46:18.634Z,100399.09
2022-08-26T14:49:22.269Z,100396.88
2022-08-26T14:52:24.417Z,100401.84
2022-08-26T14:55:27.611Z,100397.19
2022-08-26T14:58:34.813Z,100399.13
2022-08-26T15:01:37.748Z,100411.56
2022-08-26T15:04:40.760Z,100402.75
2022-08-26T15:07:42.725Z,100397.53
2022-08-26T15:10:44.940Z,100405.28
2022-08-26T15:13:47.536Z,100409.97
2022-08-26T15:16:52.375Z,100401.66
2022-08-26T15:19:54.635Z,100397.81
2022-08-26T15:22:57.560Z,100405.84
2022-08-26T15:26:04.425Z,100405.88
2022-08-26T15:29:06.747Z,100408.09
2022-08-26T15:32:09.046Z,100407.03
2022-08-26T15:35:11.219Z,100404.25
2022-08-26T15:38:13.677Z,100405.97
2022-08-26T15:41:15.670Z,100401.53
2022-08-26T15:44:17.837Z,100401.81
2022-08-26T15:47:20.070Z,100401.56
2022-08-26T15:50:22.286Z,100396.31
2022-08-26T15:53:25.426Z,100404.34
2022-08-26T15:56:33.734Z,100414.81
2022-08-26T15:59:36.695Z,100420.88
2022-08-26T16:02:38.841Z,100417.03
2022-08-26T16:05:43.625Z,100398.81
2022-08-26T16:08:46.339Z,100426.66
2022-08-26T16:11:48.401Z,100405.44
2022-08-26T16:14:54.134Z,100412.06
2022-08-26T16:17:59.632Z,100418.38
2022-08-26T16:21:13.309Z,100423.38
2022-08-26T16:24:16.986Z,100424.47
2022-08-26T16:27:19.486Z,100427.25
2022-08-26T16:30:25.238Z,100419.78
2022-08-26T16:33:31.714Z,100428.88
2022-08-26T16:36:35.089Z,100422.28
2022-08-26T16:39:40.212Z,100425.31
2022-08-26T16:42:48.957Z,100428.88
2022-08-26T16:45:51.320Z,100414.53
2022-08-26T16:48:58.072Z,100426.41
2022-08-26T16:52:00.387Z,100409.28
2022-08-26T16:55:02.499Z,100382.25
2022-08-26T16:58:04.848Z,100423.59
2022-08-26T17:01:07.527Z,100411.72
2022-08-26T17:04:09.717Z,100425.78
2022-08-26T17:07:12.430Z,100415.06
2022-08-26T17:10:14.505Z,100421.66
2022-08-26T17:13:16.729Z,100423.59
2022-08-26T17:16:37.355Z,100426.59
2022-08-26T17:19:41.758Z,100433.50
2022-08-26T17:22:51.420Z,100442.56
2022-08-26T17:25:53.603Z,100448.59
2022-08-26T17:28:55.715Z,100449.44
2022-08-26T17:31:57.863Z,100453.00
2022-08-26T17:35:00.764Z,100443.06
2022-08-26T17:38:03.021Z,100439.16
2022-08-26T17:41:10.142Z,100446.06
2022-08-26T17:44:12.567Z,100459.53
2022-08-26T17:47:15.114Z,100455.16
2022-08-26T17:50:18.896Z,100465.03
2022-08-26T17:53:22.089Z,100466.09
2022-08-26T17:56:27.008Z,100444.56
2022-08-26T17:59:30.465Z,100456.69
2022-08-26T18:02:32.893Z,100461.38
2022-08-26T18:05:35.212Z,100458.59
2022-08-26T18:08:39.178Z,100458.88
2022-08-26T18:11:41.391Z,100463.03
2022-08-26T18:14:44.238Z,100467.16
2022-08-26T18:17:46.815Z,100463.50
2022-08-26T18:20:51.998Z,100457.75
2022-08-26T18:24:01.502Z,100463.50
2022-08-26T18:27:04.019Z,100468.75
2022-08-26T18:30:13.427Z,100462.69
2022-08-26T18:33:19.524Z,100458.00
2022-08-26T18:36:24.869Z,100461.84
2022-08-26T18:39:26.860Z,100464.31
2022-08-26T18:42:29.741Z,100456.56
2022-08-26T18:45:31.775Z,100462.63
2022-08-26T18:48:37.095Z,100460.41
2022-08-26T18:51:39.545Z,100462.84
2022-08-26T18:54:41.663Z,100466.75
2022-08-26T18:57:43.702Z,100462.34
2022-08-26T19:00:46.155Z,100458.47
2022-08-26T19:03:49.469Z,100453.47
2022-08-26T19:06:52.696Z,100467.53
2022-08-26T19:09:54.839Z,100460.09
2022-08-26T19:13:00.700Z,100469.69
2022-08-26T19:16:04.991Z,100473.81
2022-08-26T19:19:07.422Z,100484.25
2022-08-26T19:22:09.576Z,100474.34
2022-08-26T19:25:12.677Z,100476.00
2022-08-26T19:28:16.568Z,100477.09
2022-08-26T19:31:18.691Z,100488.34
2022-08-26T19:34:21.132Z,100479.81
2022-08-26T19:37:23.809Z,100474.81
2022-08-26T19:40:26.001Z,100471.81
2022-08-26T19:43:28.351Z,100491.63
2022-08-26T19:46:36.556Z,100476.81
2022-08-26T19:49:38.757Z,100464.09
2022-08-26T19:52:42.175Z,100477.06
2022-08-26T19:55:44.345Z,100468.50
2022-08-26T19:58:46.641Z,100463.19
2022-08-26T20:01:52.948Z,100477.03
2022-08-26T20:05:06.141Z,100461.25
2022-08-26T20:08:08.360Z,100382.78
2022-08-26T20:11:23.454Z,100470.31
2022-08-26T20:14:27.039Z,100476.13
2022-08-26T20:17:29.158Z,100481.91
2022-08-26T20:20:49.703Z,100478.03
2022-08-26T20:24:02.244Z,100477.75
2022-08-26T20:27:07.945Z,100487.09
2022-08-26T20:30:11.065Z,100476.63
2022-08-26T20:33:13.095Z,100480.78
2022-08-26T20:36:15.724Z,100475.28
2022-08-26T20:39:21.132Z,100478.84
2022-08-26T20:42:23.195Z,100477.75
2022-08-26T20:45:26.077Z,100475.78
2022-08-26T20:48:28.301Z,100478.78
2022-08-26T20:51:30.382Z,100482.94
2022-08-26T20:54:32.655Z,100484.59
2022-08-26T20:57:34.881Z,100484.28
2022-08-26T21:00:38.838Z,100486.78
2022-08-26T21:03:41.127Z,100482.09
2022-08-26T21:06:47.270Z,100494.47
2022-08-26T21:09:55.103Z,100482.63
2022-08-26T21:12:58.017Z,100484.53
2022-08-26T21:16:00.167Z,100499.41
2022-08-26T21:19:04.225Z,100504.91
2022-08-26T21:22:06.446Z,100500.75
2022-08-26T21:25:09.246Z,100496.06
2022-08-26T21:28:11.629Z,100491.94
2022-08-26T21:31:17.237Z,100500.19
2022-08-26T21:34:19.797Z,100498.00
2022-08-26T21:37:21.929Z,100504.63
2022-08-26T21:40:24.741Z,100499.63
2022-08-26T21:43:35.564Z,100506.25
2022-08-26T21:46:37.944Z,100504.84
2022-08-26T21:49:40.029Z,100497.91
2022-08-26T21:52:42.061Z,100502.63
2022-08-26T21:55:46.030Z,100496.31
2022-08-26T21:58:48.355Z,100488.56
2022-08-26T22:01:51.413Z,100480.03
2022-08-26T22:04:54.147Z,100489.16
2022-08-26T22:07:56.489Z,100483.88
2022-08-26T22:11:01.185Z,100491.06
2022-08-26T22:14:03.310Z,100496.56
2022-08-26T22:17:06.084Z,100496.81
2022-08-26T22:20:16.726Z,100488.03
2022-08-26T22:23:19.072Z,100496.28
2022-08-26T22:26:25.515Z,100493.53
2022-08-26T22:29:27.916Z,100499.84
2022-08-26T22:32:30.012Z,100487.97
2022-08-26T22:35:32.161Z,100489.94
2022-08-26T22:38:34.790Z,100492.69
2022-08-26T22:41:37.091Z,100500.13
2022-08-26T22:44:39.361Z,100491.53
2022-08-26T22:47:42.083Z,100496.50
2022-08-26T22:50:46.025Z,100486.38
2022-08-26T22:53:48.137Z,100494.63
2022-08-26T22:56:50.312Z,100482.47
2022-08-26T22:59:52.421Z,100485.78
2022-08-26T23:02:55.033Z,100487.72
2022-08-26T23:05:57.230Z,100485.47
2022-08-26T23:08:59.362Z,100484.66
2022-08-26T23:12:01.728Z,100484.66
2022-08-26T23:15:10.077Z,100490.97
2022-08-26T23:18:13.295Z,100486.53
2022-08-26T23:21:15.479Z,100480.19
2022-08-26T23:24:18.523Z,100485.69
2022-08-26T23:27:20.644Z,100498.66
2022-08-26T23:30:26.541Z,100503.09
2022-08-26T23:33:48.558Z,100493.63
2022-08-26T23:36:51.254Z,100501.88
2022-08-26T23:39:54.865Z,100493.84
2022-08-26T23:42:58.775Z,100479.47
2022-08-26T23:46:00.908Z,100497.22
2022-08-26T23:49:04.284Z,100490.31
2022-08-26T23:52:25.846Z,100478.75
2022-08-26T23:55:28.174Z,100489.25
2022-08-26T23:58:30.291Z,100486.72
